EZY13KF EGKK-LIMC

Flight info

Callsign EZY13KF
Flight time 2h 44m
Altitude 37000
Route ODVIK Y311 DVR UL9 KONAN DCT KOK M150 KOMOB DCT SUTAL DCT GTQ DCT OBORN DCT DEVDI DCT BASGO Z424 RIXUV
Aircraft A320/M-SDE3FGHIRWY/LB1

Departure

Time 2026-04-07 18:43
Airport London Gatwick Airport (EGKK)

Arrival

Time 2026-04-07 21:27
Airport Milan Malpensa International Airport (LIMC)
Time Latitude Longitude Altitude Speed Heading
2026-04-07 17:48 51.15654 -0.17793 214 ft 0 kts 167°
2026-04-07 18:28 51.15656 -0.17794 205 ft 1 kts 167°
2026-04-07 18:29 51.15673 -0.17800 214 ft 3 kts 173°
2026-04-07 18:29 51.15693 -0.17801 212 ft 3 kts 186°
2026-04-07 18:29 51.15712 -0.17795 214 ft 3 kts 210°
2026-04-07 18:29 51.15725 -0.17778 212 ft 2 kts 253°
2026-04-07 18:30 51.15727 -0.17767 213 ft 0 kts 257°
2026-04-07 18:30 51.15727 -0.17766 212 ft 0 kts 257°
2026-04-07 18:33 51.15722 -0.17799 213 ft 9 kts 257°
2026-04-07 18:33 51.15709 -0.17889 205 ft 8 kts 256°
2026-04-07 18:33 51.15698 -0.17966 208 ft 7 kts 257°
2026-04-07 18:34 51.15687 -0.18043 209 ft 8 kts 258°
2026-04-07 18:34 51.15675 -0.18133 209 ft 9 kts 258°
2026-04-07 18:34 51.15662 -0.18237 216 ft 10 kts 259°
2026-04-07 18:34 51.15629 -0.18340 209 ft 11 kts 209°
2026-04-07 18:35 51.15548 -0.18334 205 ft 13 kts 169°
2026-04-07 18:35 51.15445 -0.18302 205 ft 17 kts 167°
2026-04-07 18:35 51.15323 -0.18256 205 ft 19 kts 167°
2026-04-07 18:35 51.15203 -0.18242 205 ft 17 kts 212°
2026-04-07 18:36 51.15177 -0.18408 205 ft 15 kts 261°
2026-04-07 18:36 51.15159 -0.18559 210 ft 13 kts 256°
2026-04-07 18:36 51.15136 -0.18697 205 ft 12 kts 256°
2026-04-07 18:36 51.15118 -0.18820 210 ft 11 kts 256°
2026-04-07 18:37 51.15101 -0.18930 210 ft 9 kts 258°
2026-04-07 18:37 51.15089 -0.19027 205 ft 9 kts 259°
2026-04-07 18:37 51.15075 -0.19139 205 ft 15 kts 259°
2026-04-07 18:37 51.15046 -0.19365 207 ft 22 kts 257°
2026-04-07 18:38 51.15012 -0.19596 210 ft 20 kts 257°
2026-04-07 18:38 51.14982 -0.19808 208 ft 19 kts 257°
2026-04-07 18:38 51.14956 -0.20004 215 ft 17 kts 257°
2026-04-07 18:38 51.14930 -0.20183 208 ft 16 kts 257°
2026-04-07 18:39 51.14908 -0.20346 208 ft 14 kts 258°
2026-04-07 18:39 51.14888 -0.20495 204 ft 13 kts 258°
2026-04-07 18:39 51.14867 -0.20651 207 ft 14 kts 257°
2026-04-07 18:39 51.14839 -0.20861 208 ft 23 kts 258°
2026-04-07 18:40 51.14801 -0.21108 210 ft 23 kts 256°
2026-04-07 18:40 51.14770 -0.21302 205 ft 15 kts 256°
2026-04-07 18:40 51.14709 -0.21400 205 ft 13 kts 179°
2026-04-07 18:40 51.14647 -0.21348 211 ft 1 kts 149°
2026-04-07 18:41 51.14641 -0.21343 209 ft 3 kts 152°
2026-04-07 18:41 51.14619 -0.21332 209 ft 0 kts 167°
2026-04-07 18:41 51.14617 -0.21331 208 ft 3 kts 167°
2026-04-07 18:41 51.14549 -0.21285 213 ft 14 kts 140°
2026-04-07 18:42 51.14525 -0.21136 216 ft 14 kts 81°
2026-04-07 18:42 51.14531 -0.21091 209 ft 8 kts 79°
2026-04-07 18:42 51.14586 -0.20694 214 ft 72 kts 78°
2026-04-07 18:42 51.14739 -0.19555 209 ft 133 kts 77°
2026-04-07 18:43 51.14963 -0.17901 317 ft 168 kts 79°
2026-04-07 18:43 51.15221 -0.16035 894 ft 177 kts 80°
2026-04-07 18:43 51.15524 -0.14076 1536 ft 187 kts 79°
2026-04-07 18:43 51.15913 -0.12053 2184 ft 193 kts 77°
2026-04-07 18:44 51.16370 -0.10021 2817 ft 198 kts 73°
2026-04-07 18:44 51.16899 -0.07961 3442 ft 203 kts 71°
2026-04-07 18:44 51.17286 -0.05716 3748 ft 222 kts 85°
2026-04-07 18:44 51.17339 -0.03145 4089 ft 242 kts 104°
2026-04-07 18:45 51.16888 -0.00444 4609 ft 259 kts 107°
2026-04-07 18:45 51.16607 0.02453 5330 ft 269 kts 97°
2026-04-07 18:45 51.16533 0.04453 5693 ft 276 kts 93°
2026-04-07 18:45 51.16498 0.07554 5941 ft 277 kts 91°
2026-04-07 18:46 51.16500 0.10588 5968 ft 277 kts 93°
2026-04-07 18:46 51.16499 0.13661 5957 ft 277 kts 93°
2026-04-07 18:46 51.16491 0.16730 5944 ft 277 kts 93°
2026-04-07 18:46 51.16506 0.19796 5936 ft 277 kts 91°
2026-04-07 18:47 51.16530 0.22872 5926 ft 277 kts 91°
2026-04-07 18:47 51.16553 0.25945 5915 ft 278 kts 91°
2026-04-07 18:47 51.16573 0.29020 5906 ft 278 kts 91°
2026-04-07 18:47 51.16586 0.32093 5905 ft 277 kts 93°
2026-04-07 18:48 51.16594 0.35179 5904 ft 278 kts 91°
2026-04-07 18:48 51.16597 0.38255 5903 ft 277 kts 92°
2026-04-07 18:48 51.16596 0.41311 5903 ft 277 kts 92°
2026-04-07 18:48 51.16596 0.44392 5902 ft 277 kts 91°
2026-04-07 18:49 51.16597 0.47464 5897 ft 277 kts 92°
2026-04-07 18:49 51.16599 0.50529 5893 ft 276 kts 92°
2026-04-07 18:49 51.16599 0.53575 5917 ft 274 kts 91°
2026-04-07 18:49 51.16596 0.56630 6053 ft 277 kts 92°
2026-04-07 18:50 51.16592 0.59703 6095 ft 278 kts 91°
2026-04-07 18:50 51.16587 0.62825 6722 ft 282 kts 92°
2026-04-07 18:50 51.16581 0.65953 7642 ft 284 kts 92°
2026-04-07 18:50 51.16573 0.69125 8489 ft 288 kts 92°
2026-04-07 18:51 51.16567 0.72303 9314 ft 293 kts 92°
2026-04-07 18:51 51.16561 0.75570 10148 ft 297 kts 92°
2026-04-07 18:51 51.16551 0.78958 10547 ft 317 kts 92°
2026-04-07 18:51 51.16537 0.82607 10802 ft 341 kts 92°
2026-04-07 18:52 51.16522 0.86495 11046 ft 362 kts 91°
2026-04-07 18:52 51.16470 0.90546 11626 ft 369 kts 93°
2026-04-07 18:52 51.16357 0.94677 12336 ft 374 kts 94°
2026-04-07 18:52 51.16209 0.98831 13069 ft 377 kts 95°
2026-04-07 18:53 51.16050 1.03009 13783 ft 380 kts 95°
2026-04-07 18:53 51.15888 1.07231 14441 ft 383 kts 94°
2026-04-07 18:53 51.15727 1.11491 15061 ft 387 kts 94°
2026-04-07 18:53 51.15572 1.15792 15659 ft 391 kts 95°
2026-04-07 18:54 51.15126 1.20064 16215 ft 393 kts 109°
2026-04-07 18:54 51.14247 1.24192 16822 ft 396 kts 111°
2026-04-07 18:54 51.13339 1.28342 17412 ft 399 kts 110°
2026-04-07 18:54 51.12411 1.32540 17984 ft 404 kts 111°
2026-04-07 18:55 51.11472 1.36771 18214 ft 406 kts 110°
2026-04-07 18:55 51.10531 1.41009 18484 ft 408 kts 110°
2026-04-07 18:55 51.09587 1.45275 19092 ft 409 kts 110°
2026-04-07 18:55 51.08642 1.49549 19653 ft 411 kts 111°
2026-04-07 18:56 51.07690 1.53861 20168 ft 414 kts 111°
2026-04-07 18:56 51.06729 1.58201 20673 ft 417 kts 110°
2026-04-07 18:56 51.05758 1.62562 21150 ft 420 kts 111°
2026-04-07 18:56 51.04772 1.66970 21603 ft 424 kts 111°
2026-04-07 18:57 51.03779 1.71389 22065 ft 427 kts 110°
2026-04-07 18:57 51.02774 1.75852 22525 ft 430 kts 111°
2026-04-07 18:57 51.01764 1.80338 22956 ft 433 kts 110°
2026-04-07 18:57 51.00744 1.84858 23351 ft 437 kts 110°
2026-04-07 18:58 50.99731 1.89341 23763 ft 439 kts 111°
2026-04-07 18:58 50.98699 1.93901 24231 ft 438 kts 111°
2026-04-07 18:58 50.97668 1.98450 24635 ft 438 kts 111°
2026-04-07 18:58 50.96634 2.03010 24989 ft 440 kts 111°
2026-04-07 18:59 50.95579 2.07645 25334 ft 442 kts 111°
2026-04-07 18:59 50.94530 2.12236 25665 ft 444 kts 111°
2026-04-07 18:59 50.93479 2.16817 25984 ft 446 kts 111°
2026-04-07 18:59 50.92407 2.21481 26302 ft 448 kts 111°
2026-04-07 19:00 50.91352 2.26060 26604 ft 450 kts 111°
2026-04-07 19:00 50.90278 2.30725 26895 ft 452 kts 111°
2026-04-07 19:00 50.89198 2.35411 27176 ft 454 kts 112°
2026-04-07 19:00 50.88110 2.40118 27466 ft 455 kts 112°
2026-04-07 19:01 50.87017 2.44835 27745 ft 457 kts 112°
2026-04-07 19:01 50.85918 2.49565 28012 ft 459 kts 112°
2026-04-07 19:01 50.83701 2.59079 28512 ft 462 kts 112°
2026-04-07 19:02 50.82584 2.63853 28748 ft 464 kts 112°
2026-04-07 19:02 50.81461 2.68637 29063 ft 463 kts 112°
2026-04-07 19:02 50.80340 2.73414 29395 ft 463 kts 112°
2026-04-07 19:02 50.79223 2.78177 29715 ft 462 kts 112°
2026-04-07 19:03 50.78504 2.81225 29924 ft 461 kts 113°
2026-04-07 19:03 50.77377 2.86041 30222 ft 462 kts 112°
2026-04-07 19:03 50.76229 2.90786 30498 ft 461 kts 117°
2026-04-07 19:04 50.74742 2.95250 30759 ft 459 kts 121°
2026-04-07 19:04 50.73905 2.97662 30906 ft 458 kts 121°
2026-04-07 19:04 50.72945 3.00430 31072 ft 458 kts 121°
2026-04-07 19:04 50.71415 3.04828 31359 ft 458 kts 121°
2026-04-07 19:05 50.69877 3.09227 31629 ft 457 kts 121°
2026-04-07 19:05 50.68338 3.13612 31910 ft 457 kts 121°
2026-04-07 19:05 50.66798 3.17991 32190 ft 456 kts 121°
2026-04-07 19:05 50.65257 3.22360 32470 ft 456 kts 121°
2026-04-07 19:06 50.63715 3.26739 32745 ft 456 kts 121°
2026-04-07 19:06 50.62179 3.31097 32978 ft 456 kts 121°
2026-04-07 19:06 50.60655 3.35415 33231 ft 456 kts 121°
2026-04-07 19:06 50.59112 3.39781 33494 ft 456 kts 121°
2026-04-07 19:07 50.57550 3.44191 33787 ft 456 kts 121°
2026-04-07 19:07 50.56005 3.48542 34069 ft 455 kts 121°
2026-04-07 19:07 50.54478 3.52828 34335 ft 455 kts 121°
2026-04-07 19:07 50.52933 3.57158 34582 ft 454 kts 121°
2026-04-07 19:08 50.51387 3.61488 34826 ft 454 kts 121°
2026-04-07 19:08 50.49842 3.65817 35061 ft 454 kts 121°
2026-04-07 19:08 50.48299 3.70138 35303 ft 453 kts 121°
2026-04-07 19:08 50.46751 3.74457 35487 ft 454 kts 121°
2026-04-07 19:09 50.45200 3.78773 35683 ft 454 kts 121°
2026-04-07 19:09 50.43647 3.83090 35880 ft 454 kts 121°
2026-04-07 19:09 50.42091 3.87405 36087 ft 454 kts 121°
2026-04-07 19:09 50.40533 3.91718 36283 ft 454 kts 121°
2026-04-07 19:10 50.38980 3.96013 36478 ft 454 kts 121°
2026-04-07 19:10 50.37425 4.00314 36670 ft 454 kts 121°
2026-04-07 19:10 50.35864 4.04616 36851 ft 453 kts 121°
2026-04-07 19:10 50.34311 4.08884 37035 ft 453 kts 121°
2026-04-07 19:11 50.32742 4.13177 37218 ft 453 kts 121°
2026-04-07 19:11 50.29599 4.21757 37268 ft 454 kts 122°
2026-04-07 19:12 50.25878 4.29701 37263 ft 453 kts 130°
2026-04-07 19:12 50.21982 4.37444 37265 ft 453 kts 130°
2026-04-07 19:13 50.18092 4.45163 37276 ft 453 kts 130°
2026-04-07 19:13 50.14187 4.52881 37274 ft 453 kts 130°
2026-04-07 19:14 50.10302 4.60546 37259 ft 454 kts 130°
2026-04-07 19:14 50.06376 4.68251 37270 ft 454 kts 130°
2026-04-07 19:15 50.02447 4.75949 37274 ft 455 kts 130°
2026-04-07 19:15 49.98508 4.83650 37281 ft 455 kts 130°
2026-04-07 19:16 49.94565 4.91329 37284 ft 455 kts 130°
2026-04-07 19:16 49.90610 4.99006 37286 ft 455 kts 130°
2026-04-07 19:17 49.86648 5.06687 37283 ft 456 kts 130°
2026-04-07 19:17 49.82682 5.14347 37288 ft 456 kts 130°
2026-04-07 19:18 49.78712 5.21997 37288 ft 456 kts 130°
2026-04-07 19:18 49.74734 5.29622 37290 ft 456 kts 130°
2026-04-07 19:19 49.70748 5.37247 37291 ft 456 kts 130°
2026-04-07 19:19 49.66778 5.44837 37293 ft 456 kts 130°
2026-04-07 19:20 49.62774 5.52479 37290 ft 456 kts 130°
2026-04-07 19:20 49.58766 5.60070 37293 ft 456 kts 130°
2026-04-07 19:21 49.54762 5.67636 37292 ft 456 kts 130°
2026-04-07 19:21 49.50749 5.75218 37295 ft 456 kts 130°
2026-04-07 19:21 49.48567 5.78726 37290 ft 453 kts 143°
2026-04-07 19:22 49.46010 5.81543 37292 ft 452 kts 147°
2026-04-07 19:22 49.40807 5.87000 37284 ft 453 kts 147°
2026-04-07 19:23 49.35584 5.92426 37280 ft 453 kts 147°
2026-04-07 19:23 49.30397 5.97821 37284 ft 454 kts 147°
2026-04-07 19:24 49.25179 6.03262 37285 ft 454 kts 147°
2026-04-07 19:24 49.19961 6.08694 37288 ft 454 kts 147°
2026-04-07 19:25 49.14729 6.14107 37287 ft 454 kts 147°
2026-04-07 19:25 49.09503 6.19488 37290 ft 453 kts 147°
2026-04-07 19:26 49.04265 6.24868 37289 ft 454 kts 147°
2026-04-07 19:26 48.99055 6.30217 37288 ft 454 kts 147°
2026-04-07 19:27 48.93850 6.35554 37288 ft 454 kts 147°
2026-04-07 19:27 48.88608 6.40912 37282 ft 454 kts 147°
2026-04-07 19:28 48.83364 6.46252 37284 ft 454 kts 147°
2026-04-07 19:28 48.78120 6.51586 37270 ft 453 kts 147°
2026-04-07 19:29 48.72866 6.56912 37280 ft 454 kts 147°
2026-04-07 19:29 48.67613 6.62217 37270 ft 454 kts 147°
2026-04-07 19:30 48.63242 6.66629 37268 ft 455 kts 147°
2026-04-07 19:30 48.57978 6.71938 37265 ft 455 kts 147°
2026-04-07 19:31 48.52708 6.77222 37266 ft 455 kts 147°
2026-04-07 19:31 48.47440 6.82488 37269 ft 455 kts 147°
2026-04-07 19:32 48.42148 6.87773 37262 ft 455 kts 147°
2026-04-07 19:32 48.36874 6.93028 37267 ft 455 kts 147°
2026-04-07 19:33 48.31589 6.98278 37257 ft 456 kts 147°
2026-04-07 19:33 48.26292 7.03534 37253 ft 456 kts 147°
2026-04-07 19:34 48.20987 7.08784 37248 ft 456 kts 147°
2026-04-07 19:34 48.15688 7.14014 37252 ft 456 kts 147°
2026-04-07 19:35 48.10376 7.19234 37252 ft 456 kts 147°
2026-04-07 19:35 48.05079 7.24425 37258 ft 456 kts 147°
2026-04-07 19:36 47.99806 7.29590 37244 ft 456 kts 147°
2026-04-07 19:36 47.94456 7.34815 37261 ft 456 kts 147°
2026-04-07 19:37 47.89178 7.39962 37259 ft 457 kts 147°
2026-04-07 19:37 47.83851 7.45131 37260 ft 457 kts 147°
2026-04-07 19:38 47.78525 7.50287 37239 ft 456 kts 147°
2026-04-07 19:38 47.73124 7.55241 37070 ft 455 kts 154°
2026-04-07 19:39 47.67319 7.59023 36912 ft 457 kts 156°
2026-04-07 19:39 47.61480 7.62803 36757 ft 458 kts 156°
2026-04-07 19:40 47.55635 7.66591 36606 ft 459 kts 156°
2026-04-07 19:40 47.49784 7.70366 36440 ft 458 kts 156°
2026-04-07 19:41 47.43926 7.74129 36298 ft 458 kts 156°
2026-04-07 19:41 47.38075 7.77882 36130 ft 459 kts 156°
2026-04-07 19:42 47.32215 7.81620 35967 ft 459 kts 156°
2026-04-07 19:42 47.26355 7.85362 35649 ft 460 kts 156°
2026-04-07 19:42 47.23458 7.87210 35276 ft 459 kts 156°
2026-04-07 19:43 47.20518 7.89077 34914 ft 460 kts 156°
2026-04-07 19:43 47.17582 7.90935 34556 ft 460 kts 156°
2026-04-07 19:43 47.14639 7.92802 34187 ft 461 kts 156°
2026-04-07 19:43 47.11687 7.94679 33778 ft 462 kts 156°
2026-04-07 19:44 47.08736 7.96554 33392 ft 463 kts 156°
2026-04-07 19:44 47.05772 7.98431 32983 ft 464 kts 156°
2026-04-07 19:44 47.02806 8.00304 32589 ft 464 kts 155°
2026-04-07 19:44 46.99843 8.02173 32204 ft 465 kts 155°
2026-04-07 19:45 46.96863 8.04053 31821 ft 466 kts 155°
2026-04-07 19:45 46.93881 8.05930 31442 ft 467 kts 155°
2026-04-07 19:45 46.90894 8.07803 31076 ft 468 kts 155°
2026-04-07 19:45 46.87890 8.09680 30644 ft 468 kts 155°
2026-04-07 19:46 46.84903 8.11548 30173 ft 469 kts 155°
2026-04-07 19:46 46.81900 8.13428 29633 ft 470 kts 155°
2026-04-07 19:46 46.78897 8.15303 29116 ft 471 kts 155°
2026-04-07 19:46 46.75874 8.17192 28592 ft 474 kts 155°
2026-04-07 19:47 46.72839 8.19091 28085 ft 476 kts 155°
2026-04-07 19:47 46.69783 8.20999 27577 ft 477 kts 155°
2026-04-07 19:47 46.66772 8.22875 27093 ft 478 kts 155°
2026-04-07 19:47 46.63667 8.24804 26594 ft 479 kts 155°
2026-04-07 19:48 46.60636 8.26684 26128 ft 479 kts 155°
2026-04-07 19:48 46.57579 8.28581 25658 ft 476 kts 155°
2026-04-07 19:48 46.54536 8.30467 25196 ft 474 kts 156°
2026-04-07 19:48 46.51519 8.32329 24750 ft 471 kts 156°
2026-04-07 19:49 46.48501 8.34189 24282 ft 468 kts 156°
2026-04-07 19:49 46.45514 8.36029 23853 ft 466 kts 156°
2026-04-07 19:49 46.42530 8.37866 23340 ft 463 kts 156°
2026-04-07 19:49 46.39578 8.39684 22810 ft 460 kts 156°
2026-04-07 19:50 46.36637 8.41493 22311 ft 457 kts 156°
2026-04-07 19:50 46.33718 8.43283 21800 ft 454 kts 156°
2026-04-07 19:50 46.30821 8.45059 21311 ft 451 kts 156°
2026-04-07 19:50 46.27917 8.46617 20825 ft 449 kts 163°
2026-04-07 19:51 46.24869 8.47566 20352 ft 448 kts 172°
2026-04-07 19:51 46.21784 8.48028 19879 ft 443 kts 173°
2026-04-07 19:51 46.18727 8.48456 19412 ft 440 kts 174°
2026-04-07 19:51 46.15689 8.48881 18955 ft 438 kts 174°
2026-04-07 19:52 46.12663 8.49339 18508 ft 435 kts 171°
2026-04-07 19:52 46.09729 8.50298 18172 ft 431 kts 162°
2026-04-07 19:52 46.06946 8.51764 18143 ft 418 kts 158°
2026-04-07 19:52 46.04281 8.53207 18162 ft 399 kts 159°
2026-04-07 19:53 46.01738 8.54565 18163 ft 381 kts 159°
2026-04-07 19:53 45.99303 8.55858 18161 ft 364 kts 159°
2026-04-07 19:53 45.96988 8.57088 18157 ft 349 kts 159°
2026-04-07 19:53 45.94728 8.58295 18158 ft 341 kts 158°
2026-04-07 19:54 45.92514 8.59481 17933 ft 339 kts 158°
2026-04-07 19:54 45.90338 8.60744 17708 ft 336 kts 152°
2026-04-07 19:54 45.88367 8.62521 17321 ft 337 kts 140°
2026-04-07 19:54 45.86545 8.64632 16781 ft 333 kts 139°
2026-04-07 19:55 45.84766 8.66709 16269 ft 328 kts 139°
2026-04-07 19:55 45.83007 8.68764 15781 ft 325 kts 139°
2026-04-07 19:55 45.81260 8.70802 15288 ft 323 kts 139°
2026-04-07 19:55 45.79517 8.72826 14806 ft 320 kts 140°
2026-04-07 19:56 45.77810 8.74803 14334 ft 319 kts 140°
2026-04-07 19:56 45.75990 8.76726 13887 ft 323 kts 149°
2026-04-07 19:56 45.74024 8.78251 13433 ft 323 kts 150°
2026-04-07 19:56 45.72048 8.79768 13127 ft 319 kts 150°
2026-04-07 19:57 45.70128 8.81246 12783 ft 317 kts 150°
2026-04-07 19:57 45.68189 8.82739 12409 ft 316 kts 150°
2026-04-07 19:57 45.66254 8.84227 12038 ft 314 kts 150°
2026-04-07 19:57 45.64360 8.85677 11892 ft 304 kts 150°
2026-04-07 19:58 45.62520 8.87072 11775 ft 295 kts 153°
2026-04-07 19:58 45.60594 8.88007 11526 ft 291 kts 168°
2026-04-07 19:58 45.58609 8.88547 11207 ft 290 kts 168°
2026-04-07 19:58 45.56634 8.89081 10879 ft 288 kts 168°
2026-04-07 19:59 45.54667 8.89614 10552 ft 287 kts 168°
2026-04-07 19:59 45.52706 8.90148 10236 ft 286 kts 168°
2026-04-07 19:59 45.50757 8.90681 9893 ft 285 kts 168°
2026-04-07 19:59 45.48821 8.91209 9664 ft 278 kts 168°
2026-04-07 20:00 45.46943 8.91721 9417 ft 273 kts 168°
2026-04-07 20:00 45.45090 8.92226 9106 ft 270 kts 168°
2026-04-07 20:00 45.41523 8.93193 8398 ft 252 kts 168°
2026-04-07 20:01 45.39809 8.93660 8092 ft 249 kts 168°
2026-04-07 20:01 45.38117 8.94121 7791 ft 247 kts 168°
2026-04-07 20:01 45.36422 8.94581 7409 ft 248 kts 168°
2026-04-07 20:01 45.34727 8.95038 7075 ft 247 kts 168°
2026-04-07 20:02 45.33042 8.95491 6787 ft 246 kts 169°
2026-04-07 20:02 45.31365 8.95941 6562 ft 241 kts 169°
2026-04-07 20:02 45.29720 8.96384 6155 ft 242 kts 169°
2026-04-07 20:02 45.28079 8.96828 6014 ft 238 kts 169°
2026-04-07 20:03 45.26443 8.97273 6033 ft 241 kts 169°
2026-04-07 20:03 45.24790 8.97723 6034 ft 242 kts 169°
2026-04-07 20:03 45.23149 8.98170 6032 ft 239 kts 169°
2026-04-07 20:03 45.21517 8.98612 6032 ft 239 kts 169°
2026-04-07 20:04 45.19884 8.99049 6032 ft 238 kts 169°
2026-04-07 20:04 45.18243 8.99487 6034 ft 241 kts 169°
2026-04-07 20:04 45.16600 8.99924 6036 ft 240 kts 169°
2026-04-07 20:04 45.14947 9.00365 6036 ft 241 kts 169°
2026-04-07 20:05 45.13330 9.00786 6036 ft 238 kts 169°
2026-04-07 20:05 45.11704 9.01203 6035 ft 238 kts 169°
2026-04-07 20:05 45.10066 9.01622 6038 ft 239 kts 169°
2026-04-07 20:05 45.08425 9.02043 6037 ft 239 kts 169°
2026-04-07 20:06 45.06792 9.02461 6037 ft 238 kts 170°
2026-04-07 20:06 45.05154 9.02837 6034 ft 239 kts 178°
2026-04-07 20:06 45.03537 9.02465 6036 ft 236 kts 205°
2026-04-07 20:06 45.02224 9.01113 6037 ft 234 kts 232°
2026-04-07 20:07 45.01499 8.99091 6040 ft 231 kts 259°
2026-04-07 20:07 45.01488 8.96857 6039 ft 228 kts 285°
2026-04-07 20:07 45.02166 8.94861 6040 ft 225 kts 311°
2026-04-07 20:07 45.03376 8.93498 6037 ft 224 kts 336°
2026-04-07 20:08 45.04835 8.92720 6042 ft 225 kts 340°
2026-04-07 20:08 45.06300 8.91964 6037 ft 225 kts 340°
2026-04-07 20:08 45.07774 8.91196 6035 ft 225 kts 340°
2026-04-07 20:08 45.09253 8.90423 6039 ft 225 kts 340°
2026-04-07 20:09 45.10713 8.89660 6038 ft 224 kts 340°
2026-04-07 20:09 45.12177 8.88894 6039 ft 223 kts 340°
2026-04-07 20:09 45.13635 8.88128 6035 ft 225 kts 340°
2026-04-07 20:09 45.15106 8.87353 6038 ft 225 kts 340°
2026-04-07 20:10 45.16578 8.86579 6033 ft 227 kts 340°
2026-04-07 20:10 45.18061 8.85801 6036 ft 227 kts 341°
2026-04-07 20:10 45.19507 8.85041 6029 ft 214 kts 341°
2026-04-07 20:10 45.20869 8.84389 5982 ft 204 kts 348°
2026-04-07 20:11 45.22254 8.84003 5829 ft 201 kts 349°
2026-04-07 20:11 45.23628 8.83629 5759 ft 201 kts 349°
2026-04-07 20:11 45.25006 8.83285 5627 ft 201 kts 356°
2026-04-07 20:11 45.26402 8.83240 5506 ft 200 kts 355°
2026-04-07 20:12 45.27767 8.82992 5324 ft 201 kts 350°
2026-04-07 20:12 45.29197 8.82629 4787 ft 214 kts 348°
2026-04-07 20:12 45.30674 8.82229 4193 ft 221 kts 348°
2026-04-07 20:12 45.32129 8.81832 4029 ft 204 kts 349°
2026-04-07 20:13 45.33497 8.81459 4035 ft 198 kts 348°
2026-04-07 20:13 45.34843 8.81091 4032 ft 197 kts 348°
2026-04-07 20:13 45.36181 8.80725 4031 ft 196 kts 348°
2026-04-07 20:13 45.37518 8.80360 4032 ft 192 kts 348°
2026-04-07 20:14 45.38786 8.80013 4064 ft 184 kts 348°
2026-04-07 20:14 45.40097 8.79654 4039 ft 198 kts 348°
2026-04-07 20:14 45.41016 8.79402 4027 ft 199 kts 348°
2026-04-07 20:14 45.42379 8.79029 4027 ft 200 kts 348°
2026-04-07 20:15 45.43744 8.78654 4030 ft 200 kts 349°
2026-04-07 20:15 45.45089 8.78286 3899 ft 199 kts 349°
2026-04-07 20:15 45.46464 8.77908 3671 ft 198 kts 349°
2026-04-07 20:15 45.47814 8.77538 3426 ft 198 kts 349°
2026-04-07 20:16 45.49160 8.77168 3175 ft 197 kts 349°
2026-04-07 20:16 45.50475 8.76807 2917 ft 192 kts 348°
2026-04-07 20:16 45.51764 8.76453 2672 ft 187 kts 348°
2026-04-07 20:16 45.53022 8.76107 2420 ft 180 kts 348°
2026-04-07 20:17 45.54205 8.75782 2203 ft 167 kts 347°
2026-04-07 20:17 45.55309 8.75478 1988 ft 159 kts 347°
2026-04-07 20:17 45.56380 8.75183 1775 ft 154 kts 347°
2026-04-07 20:17 45.57427 8.74894 1564 ft 153 kts 346°
2026-04-07 20:18 45.58478 8.74597 1364 ft 153 kts 346°
2026-04-07 20:18 45.59533 8.74338 1160 ft 160 kts 349°
2026-04-07 20:18 45.60778 8.74012 1125 ft 203 kts 348°
2026-04-07 20:18 45.62214 8.73608 1423 ft 223 kts 348°
2026-04-07 20:19 45.63702 8.73231 1631 ft 203 kts 349°
2026-04-07 20:19 45.65034 8.73378 1752 ft 202 kts 27°
2026-04-07 20:19 45.65981 8.74964 2204 ft 219 kts 77°
2026-04-07 20:19 45.65833 8.76918 3760 ft 195 kts 108°
2026-04-07 20:20 45.65323 8.78915 4312 ft 230 kts 107°
2026-04-07 20:20 45.64879 8.81238 5032 ft 254 kts 100°
2026-04-07 20:20 45.64629 8.83585 5619 ft 219 kts 92°
2026-04-07 20:20 45.64599 8.85608 5993 ft 197 kts 84°
2026-04-07 20:21 45.64778 8.87552 6370 ft 203 kts 75°
2026-04-07 20:21 45.65032 8.89650 6503 ft 220 kts 85°
2026-04-07 20:21 45.65025 8.91855 6510 ft 223 kts 90°
2026-04-07 20:21 45.64807 8.94052 6506 ft 226 kts 111°
2026-04-07 20:22 45.63864 8.95826 6431 ft 228 kts 144°
2026-04-07 20:22 45.62401 8.96681 6055 ft 229 kts 170°
2026-04-07 20:22 45.60831 8.96903 6020 ft 230 kts 175°
2026-04-07 20:22 45.59207 8.97127 6030 ft 237 kts 174°
2026-04-07 20:23 45.57554 8.97376 6030 ft 239 kts 174°
2026-04-07 20:23 45.55897 8.97628 6030 ft 240 kts 174°
2026-04-07 20:23 45.54242 8.97880 6030 ft 239 kts 174°
2026-04-07 20:23 45.52586 8.98132 6028 ft 239 kts 174°
2026-04-07 20:24 45.50932 8.98388 6015 ft 240 kts 174°
2026-04-07 20:24 45.49271 8.98656 6012 ft 241 kts 174°
2026-04-07 20:24 45.47597 8.98933 6017 ft 243 kts 174°
2026-04-07 20:24 45.45914 8.99210 6017 ft 244 kts 174°
2026-04-07 20:25 45.44234 8.99486 6013 ft 243 kts 174°
2026-04-07 20:25 45.42555 8.99761 6016 ft 243 kts 174°
2026-04-07 20:25 45.40889 9.00037 6098 ft 240 kts 174°
2026-04-07 20:25 45.39237 9.00312 6355 ft 242 kts 173°
2026-04-07 20:26 45.37545 9.00580 6606 ft 243 kts 174°
2026-04-07 20:26 45.35882 9.00836 6843 ft 245 kts 173°
2026-04-07 20:26 45.34174 9.01092 6974 ft 247 kts 173°
2026-04-07 20:26 45.32461 9.01213 7011 ft 246 kts 187°
2026-04-07 20:27 45.30786 9.00772 7018 ft 245 kts 192°
2026-04-07 20:27 45.29119 9.00293 7017 ft 245 kts 192°
2026-04-07 20:27 45.27445 8.99807 7039 ft 246 kts 192°
2026-04-07 20:27 45.25765 8.99318 7046 ft 246 kts 192°
2026-04-07 20:28 45.24093 8.98833 7047 ft 246 kts 192°
2026-04-07 20:28 45.22415 8.98339 7047 ft 246 kts 194°
2026-04-07 20:28 45.20896 8.97291 7050 ft 243 kts 222°
2026-04-07 20:28 45.19914 8.95402 7054 ft 239 kts 251°
2026-04-07 20:29 45.19665 8.93118 7052 ft 234 kts 278°
2026-04-07 20:29 45.20159 8.90965 7048 ft 230 kts 304°
2026-04-07 20:29 45.21256 8.89371 7048 ft 226 kts 330°
2026-04-07 20:29 45.22719 8.88633 7036 ft 225 kts 356°
2026-04-07 20:30 45.24262 8.88778 7054 ft 226 kts
2026-04-07 20:30 45.25828 8.89172 7050 ft 226 kts 11°
2026-04-07 20:30 45.27370 8.89602 7047 ft 226 kts 11°
2026-04-07 20:30 45.28918 8.90041 7045 ft 226 kts 12°
2026-04-07 20:31 45.30461 8.90482 7044 ft 226 kts 13°
2026-04-07 20:31 45.31867 8.91368 7038 ft 226 kts 36°
2026-04-07 20:31 45.32900 8.93043 7043 ft 229 kts 61°
2026-04-07 20:31 45.33309 8.95240 7032 ft 234 kts 88°
2026-04-07 20:32 45.32963 8.97502 7029 ft 239 kts 115°
2026-04-07 20:32 45.31902 8.99306 7028 ft 241 kts 143°
2026-04-07 20:32 45.30350 9.00208 7013 ft 243 kts 173°
2026-04-07 20:32 45.28688 9.00005 7022 ft 242 kts 200°
2026-04-07 20:33 45.27145 8.99034 7030 ft 244 kts 201°
2026-04-07 20:33 45.25490 8.98500 7041 ft 245 kts 183°
2026-04-07 20:33 45.23778 8.98433 7048 ft 247 kts 181°
2026-04-07 20:33 45.22065 8.98325 7046 ft 245 kts 189°
2026-04-07 20:34 45.20534 8.97382 7049 ft 242 kts 221°
2026-04-07 20:34 45.19522 8.95527 7056 ft 239 kts 249°
2026-04-07 20:34 45.19210 8.93282 7057 ft 235 kts 275°
2026-04-07 20:34 45.19643 8.91061 7058 ft 231 kts 302°
2026-04-07 20:35 45.20705 8.89388 7057 ft 229 kts 327°
2026-04-07 20:35 45.22143 8.88561 7050 ft 227 kts 353°
2026-04-07 20:35 45.23711 8.88522 7046 ft 226 kts
2026-04-07 20:35 45.25274 8.88650 6970 ft 224 kts
2026-04-07 20:36 45.26832 8.88812 6648 ft 224 kts
2026-04-07 20:36 45.28383 8.88980 6346 ft 224 kts
2026-04-07 20:36 45.29934 8.89161 6278 ft 223 kts
2026-04-07 20:36 45.31387 8.89910 6283 ft 224 kts 32°
2026-04-07 20:37 45.32485 8.91468 6283 ft 226 kts 57°
2026-04-07 20:37 45.33002 8.93584 6275 ft 232 kts 84°
2026-04-07 20:37 45.32787 8.95855 6273 ft 236 kts 111°
2026-04-07 20:37 45.31849 8.97776 6272 ft 241 kts 138°
2026-04-07 20:38 45.30365 8.98882 6273 ft 244 kts 168°
2026-04-07 20:38 45.28676 8.98984 6290 ft 244 kts 184°
2026-04-07 20:38 45.26984 8.98841 6285 ft 243 kts 185°
2026-04-07 20:38 45.25297 8.98672 6289 ft 242 kts 185°
2026-04-07 20:39 45.23621 8.98498 6289 ft 243 kts 185°
2026-04-07 20:39 45.21939 8.98258 6287 ft 242 kts 195°
2026-04-07 20:39 45.20473 8.97198 6295 ft 237 kts 224°
2026-04-07 20:39 45.19538 8.95318 6270 ft 233 kts 251°
2026-04-07 20:40 45.19317 8.93100 5965 ft 227 kts 279°
2026-04-07 20:40 45.19834 8.91028 5639 ft 224 kts 305°
2026-04-07 20:40 45.20939 8.89509 5357 ft 221 kts 330°
2026-04-07 20:40 45.22394 8.88839 5292 ft 223 kts 355°
2026-04-07 20:41 45.23955 8.88855 5299 ft 225 kts
2026-04-07 20:41 45.25515 8.88986 5294 ft 225 kts
2026-04-07 20:41 45.27070 8.89148 5292 ft 224 kts
2026-04-07 20:41 45.28622 8.89315 5287 ft 224 kts
2026-04-07 20:42 45.30180 8.89560 5284 ft 226 kts 14°
2026-04-07 20:42 45.31572 8.90553 5278 ft 226 kts 40°
2026-04-07 20:42 45.32517 8.92337 5280 ft 229 kts 67°
2026-04-07 20:42 45.32783 8.94549 5270 ft 234 kts 95°
2026-04-07 20:43 45.32278 8.96754 5271 ft 235 kts 123°
2026-04-07 20:43 45.31114 8.98361 5278 ft 235 kts 151°
2026-04-07 20:43 45.29581 8.99056 5280 ft 232 kts 179°
2026-04-07 20:43 45.27978 8.98952 5126 ft 230 kts 187°
2026-04-07 20:44 45.26377 8.98779 4821 ft 230 kts 187°
2026-04-07 20:44 45.24789 8.98606 4528 ft 228 kts 186°
2026-04-07 20:44 45.23230 8.98439 4319 ft 226 kts 185°
2026-04-07 20:44 45.21662 8.98320 4288 ft 226 kts 178°
2026-04-07 20:45 45.20093 8.98604 4294 ft 228 kts 171°
2026-04-07 20:45 45.18519 8.99086 4296 ft 228 kts 168°
2026-04-07 20:45 45.16971 8.99596 4300 ft 228 kts 168°
2026-04-07 20:45 45.15445 9.00083 4301 ft 228 kts 168°
2026-04-07 20:46 45.13894 9.00555 4301 ft 228 kts 169°
2026-04-07 20:46 45.12315 9.01016 4302 ft 229 kts 170°
2026-04-07 20:46 45.10774 9.01551 4301 ft 228 kts 170°
2026-04-07 20:46 45.09221 9.01398 4301 ft 225 kts 203°
2026-04-07 20:47 45.08023 9.00096 4303 ft 222 kts 237°
2026-04-07 20:47 45.07484 8.98085 4313 ft 221 kts 260°
2026-04-07 20:47 45.07246 8.95933 4314 ft 221 kts 262°
2026-04-07 20:47 45.07052 8.93777 4306 ft 222 kts 273°
2026-04-07 20:48 45.07538 8.91746 4305 ft 222 kts 307°
2026-04-07 20:48 45.08751 8.90448 4303 ft 223 kts 340°
2026-04-07 20:48 45.10269 8.90024 4312 ft 224 kts 352°
2026-04-07 20:48 45.11824 8.89786 4313 ft 224 kts 349°
2026-04-07 20:49 45.13338 8.89283 4312 ft 224 kts 344°
2026-04-07 20:49 45.14799 8.88536 4312 ft 224 kts 335°
2026-04-07 20:49 45.16212 8.87614 4311 ft 223 kts 334°
2026-04-07 20:49 45.17610 8.86671 4309 ft 222 kts 334°
2026-04-07 20:50 45.18991 8.85728 4310 ft 220 kts 334°
2026-04-07 20:50 45.20374 8.84780 4307 ft 220 kts 334°
2026-04-07 20:50 45.21803 8.84010 4302 ft 221 kts 348°
2026-04-07 20:50 45.23316 8.83617 4303 ft 221 kts 349°
2026-04-07 20:51 45.24837 8.83225 4299 ft 222 kts 352°
2026-04-07 20:51 45.26375 8.83196 4296 ft 222 kts 358°
2026-04-07 20:51 45.27886 8.82975 4283 ft 211 kts 350°
2026-04-07 20:51 45.29295 8.82609 4281 ft 202 kts 348°
2026-04-07 20:52 45.30673 8.82231 4277 ft 201 kts 348°
2026-04-07 20:52 45.32048 8.81855 4268 ft 201 kts 348°
2026-04-07 20:52 45.33419 8.81480 4270 ft 201 kts 348°
2026-04-07 20:52 45.34785 8.81107 4268 ft 200 kts 348°
2026-04-07 20:53 45.36123 8.80741 4282 ft 191 kts 348°
2026-04-07 20:53 45.37426 8.80385 4298 ft 189 kts 348°
2026-04-07 20:53 45.38719 8.80031 4291 ft 190 kts 348°
2026-04-07 20:53 45.40014 8.79677 4288 ft 189 kts 348°
2026-04-07 20:54 45.41304 8.79323 4288 ft 189 kts 348°
2026-04-07 20:54 45.42591 8.78970 4282 ft 189 kts 348°
2026-04-07 20:54 45.43887 8.78615 4143 ft 190 kts 349°
2026-04-07 20:54 45.45158 8.78267 3928 ft 188 kts 349°
2026-04-07 20:55 45.46445 8.77914 3693 ft 188 kts 349°
2026-04-07 20:55 45.47741 8.77558 3452 ft 187 kts 349°
2026-04-07 20:55 45.49004 8.77211 3207 ft 186 kts 348°
2026-04-07 20:55 45.50266 8.76864 2956 ft 183 kts 348°
2026-04-07 20:56 45.51515 8.76521 2729 ft 178 kts 348°
2026-04-07 20:56 45.52311 8.76302 2564 ft 173 kts 348°
2026-04-07 20:56 45.53780 8.75899 2286 ft 155 kts 348°
2026-04-07 20:56 45.54484 8.75705 2147 ft 151 kts 347°
2026-04-07 20:57 45.55844 8.75330 1884 ft 149 kts 347°
2026-04-07 20:57 45.56865 8.75049 1682 ft 150 kts 346°
2026-04-07 20:57 45.57543 8.74862 1546 ft 149 kts 348°
2026-04-07 20:57 45.58554 8.74584 1345 ft 146 kts 347°
2026-04-07 20:58 45.59544 8.74311 1152 ft 143 kts 348°
2026-04-07 20:58 45.60519 8.74042 962 ft 143 kts 348°
2026-04-07 20:58 45.61532 8.73758 959 ft 159 kts 348°
2026-04-07 20:58 45.62615 8.73425 1801 ft 163 kts 345°
2026-04-07 20:59 45.63787 8.73061 2577 ft 185 kts 347°
2026-04-07 20:59 45.65150 8.72666 3246 ft 223 kts 348°
2026-04-07 20:59 45.66909 8.72136 3115 ft 280 kts 348°
2026-04-07 20:59 45.68765 8.71569 3004 ft 264 kts 348°
2026-04-07 21:00 45.70499 8.71044 2972 ft 245 kts 347°
2026-04-07 21:00 45.73684 8.70124 2967 ft 229 kts 354°
2026-04-07 21:00 45.75253 8.70426 2970 ft 230 kts 22°
2026-04-07 21:01 45.76547 8.71758 2970 ft 232 kts 50°
2026-04-07 21:01 45.77241 8.73828 2974 ft 233 kts 80°
2026-04-07 21:01 45.77142 8.76126 3192 ft 236 kts 108°
2026-04-07 21:01 45.76341 8.78176 3439 ft 238 kts 124°
2026-04-07 21:02 45.75302 8.80029 3535 ft 239 kts 141°
2026-04-07 21:02 45.73892 8.81283 3563 ft 240 kts 152°
2026-04-07 21:02 45.72407 8.82359 3559 ft 234 kts 153°
2026-04-07 21:02 45.70971 8.83371 3559 ft 229 kts 154°
2026-04-07 21:03 45.69539 8.84376 3581 ft 229 kts 154°
2026-04-07 21:03 45.68113 8.85374 3575 ft 228 kts 154°
2026-04-07 21:03 45.66684 8.86371 3573 ft 228 kts 154°
2026-04-07 21:03 45.65275 8.87353 3573 ft 229 kts 154°
2026-04-07 21:04 45.63844 8.88348 3571 ft 229 kts 154°
2026-04-07 21:04 45.62397 8.89354 3578 ft 229 kts 154°
2026-04-07 21:04 45.60980 8.90334 3574 ft 230 kts 154°
2026-04-07 21:04 45.59540 8.91332 3573 ft 229 kts 154°
2026-04-07 21:05 45.58106 8.92326 3580 ft 229 kts 154°
2026-04-07 21:05 45.56681 8.93318 3565 ft 228 kts 154°
2026-04-07 21:05 45.55251 8.94315 3568 ft 228 kts 154°
2026-04-07 21:05 45.53786 8.95176 3571 ft 228 kts 169°
2026-04-07 21:06 45.52215 8.95125 3576 ft 227 kts 197°
2026-04-07 21:06 45.50846 8.94085 3565 ft 220 kts 217°
2026-04-07 21:06 45.49536 8.93012 3571 ft 217 kts 194°
2026-04-07 21:06 45.48036 8.92857 3572 ft 218 kts 177°
2026-04-07 21:07 45.46524 8.93012 3576 ft 218 kts 175°
2026-04-07 21:07 45.45009 8.93212 3565 ft 218 kts 175°
2026-04-07 21:07 45.43499 8.93416 3573 ft 218 kts 175°
2026-04-07 21:07 45.41989 8.93622 3570 ft 217 kts 175°
2026-04-07 21:08 45.40489 8.93824 3568 ft 217 kts 174°
2026-04-07 21:08 45.38986 8.94023 3571 ft 216 kts 174°
2026-04-07 21:08 45.37457 8.94229 3571 ft 229 kts 175°
2026-04-07 21:08 45.35853 8.94455 3571 ft 234 kts 175°
2026-04-07 21:09 45.34229 8.94688 3568 ft 235 kts 175°
2026-04-07 21:09 45.32606 8.94930 3572 ft 235 kts 175°
2026-04-07 21:09 45.30996 8.95169 3586 ft 235 kts 174°
2026-04-07 21:09 45.29371 8.95414 3585 ft 235 kts 175°
2026-04-07 21:10 45.27745 8.95654 3582 ft 235 kts 175°
2026-04-07 21:10 45.26100 8.95893 3582 ft 235 kts 174°
2026-04-07 21:10 45.24495 8.96126 3583 ft 235 kts 175°
2026-04-07 21:10 45.22871 8.96371 3597 ft 235 kts 175°
2026-04-07 21:11 45.21247 8.96616 3569 ft 235 kts 174°
2026-04-07 21:11 45.19622 8.96855 3575 ft 235 kts 175°
2026-04-07 21:11 45.17995 8.97092 3579 ft 235 kts 174°
2026-04-07 21:11 45.16367 8.97328 3573 ft 235 kts 175°
2026-04-07 21:12 45.14771 8.97561 3575 ft 226 kts 174°
2026-04-07 21:12 45.13214 8.97784 3580 ft 225 kts 174°
2026-04-07 21:12 45.11657 8.97891 3574 ft 223 kts 189°
2026-04-07 21:12 45.10222 8.97118 3574 ft 222 kts 217°
2026-04-07 21:13 45.09084 8.95643 3583 ft 222 kts 225°
2026-04-07 21:13 45.07978 8.94114 3578 ft 223 kts 225°
2026-04-07 21:13 45.06874 8.92585 3575 ft 222 kts 225°
2026-04-07 21:13 45.05767 8.91053 3574 ft 222 kts 225°
2026-04-07 21:14 45.04662 8.89524 3577 ft 222 kts 225°
2026-04-07 21:14 45.03603 8.87937 3581 ft 222 kts 231°
2026-04-07 21:14 45.02711 8.86159 3572 ft 222 kts 241°
2026-04-07 21:14 45.02048 8.84228 3579 ft 221 kts 250°
2026-04-07 21:15 45.01616 8.82147 3573 ft 221 kts 261°
2026-04-07 21:15 45.01591 8.79971 3578 ft 220 kts 284°
2026-04-07 21:15 45.02252 8.78056 3570 ft 218 kts 313°
2026-04-07 21:15 45.03476 8.76841 3575 ft 217 kts 341°
2026-04-07 21:16 45.04946 8.76593 3575 ft 218 kts
2026-04-07 21:16 45.06466 8.76883 3579 ft 217 kts
2026-04-07 21:16 45.07959 8.77232 3579 ft 218 kts
2026-04-07 21:16 45.09458 8.77595 3577 ft 219 kts
2026-04-07 21:17 45.10946 8.77957 3579 ft 219 kts
2026-04-07 21:17 45.12442 8.78321 3574 ft 218 kts
2026-04-07 21:17 45.13932 8.78683 3578 ft 217 kts
2026-04-07 21:17 45.15424 8.79042 3569 ft 218 kts
2026-04-07 21:18 45.16925 8.79401 3577 ft 218 kts
2026-04-07 21:18 45.18409 8.79754 3575 ft 211 kts
2026-04-07 21:18 45.19847 8.80099 3577 ft 208 kts
2026-04-07 21:18 45.21276 8.80442 3579 ft 208 kts
2026-04-07 21:19 45.22706 8.80784 3580 ft 209 kts
2026-04-07 21:19 45.24135 8.81127 3566 ft 208 kts
2026-04-07 21:19 45.25561 8.81469 3579 ft 209 kts
2026-04-07 21:19 45.27000 8.81812 3579 ft 209 kts
2026-04-07 21:20 45.28437 8.82154 3574 ft 210 kts
2026-04-07 21:20 45.29889 8.82279 3575 ft 208 kts 356°
2026-04-07 21:20 45.31265 8.82040 3605 ft 190 kts 350°
2026-04-07 21:20 45.32506 8.81723 3580 ft 173 kts 349°
2026-04-07 21:21 45.33673 8.81408 3579 ft 173 kts 349°
2026-04-07 21:21 45.34873 8.81082 3579 ft 177 kts 349°
2026-04-07 21:21 45.36085 8.80751 3570 ft 177 kts 349°
2026-04-07 21:21 45.37298 8.80419 3580 ft 178 kts 349°
2026-04-07 21:22 45.38505 8.80089 3581 ft 177 kts 349°
2026-04-07 21:22 45.39715 8.79758 3576 ft 178 kts 349°
2026-04-07 21:22 45.40926 8.79426 3582 ft 178 kts 349°
2026-04-07 21:22 45.42141 8.79094 3569 ft 178 kts 349°
2026-04-07 21:23 45.43355 8.78761 3578 ft 177 kts 349°
2026-04-07 21:23 45.44572 8.78427 3579 ft 178 kts 349°
2026-04-07 21:23 45.45781 8.78096 3581 ft 177 kts 349°
2026-04-07 21:23 45.46995 8.77763 3520 ft 178 kts 349°
2026-04-07 21:24 45.48209 8.77429 3341 ft 178 kts 349°
2026-04-07 21:24 45.49417 8.77097 3119 ft 176 kts 349°
2026-04-07 21:24 45.50618 8.76767 2893 ft 175 kts 348°
2026-04-07 21:24 45.51797 8.76444 2665 ft 167 kts 348°
2026-04-07 21:25 45.52902 8.76140 2458 ft 157 kts 347°
2026-04-07 21:25 45.53952 8.75851 2244 ft 151 kts 347°
2026-04-07 21:25 45.54966 8.75572 2049 ft 149 kts 347°
2026-04-07 21:25 45.55980 8.75293 1867 ft 148 kts 347°
2026-04-07 21:26 45.56989 8.75015 1664 ft 148 kts 346°
2026-04-07 21:26 45.58002 8.74737 1451 ft 149 kts 348°
2026-04-07 21:26 45.59024 8.74470 1234 ft 149 kts 349°
2026-04-07 21:26 45.60041 8.74165 1062 ft 150 kts 348°
2026-04-07 21:27 45.61062 8.73896 889 ft 149 kts 349°
2026-04-07 21:27 45.62071 8.73615 779 ft 141 kts 349°
2026-04-07 21:27 45.62927 8.73389 757 ft 86 kts 348°
2026-04-07 21:27 45.63224 8.73141 757 ft 25 kts 305°
2026-04-07 21:28 45.63290 8.73004 755 ft 16 kts 304°
2026-04-07 21:28 45.63351 8.72883 757 ft 14 kts 307°
2026-04-07 21:28 45.63402 8.72768 757 ft 13 kts 291°
2026-04-07 21:28 45.63410 8.72645 759 ft 12 kts 264°
2026-04-07 21:29 45.63392 8.72490 758 ft 21 kts 259°
2026-04-07 21:29 45.63361 8.72262 759 ft 25 kts 258°
2026-04-07 21:29 45.63329 8.72011 756 ft 27 kts 260°
2026-04-07 21:29 45.63295 8.71753 759 ft 20 kts 262°
2026-04-07 21:30 45.63265 8.71557 759 ft 15 kts 260°
2026-04-07 21:30 45.63238 8.71423 755 ft 10 kts 210°
2026-04-07 21:30 45.63176 8.71431 759 ft 8 kts 170°
2026-04-07 21:30 45.63158 8.71435 756 ft 0 kts 168°